Time;durP1;ratioP1;P1;durP2;ratioP2;P2;SDS_P1;SDS_P2;PMS_P1;PMS_P2;Temp;Humidity;BMP_temperature;BMP_pressure;BME280_temperature;BME280_humidity;BME280_pressure;Samples;Min_cycle;Max_cycle;Signal;HPM_P1;HPM_P2
2023/07/23 00:00:10;;;;;;;;;;;;;;;14.58;48.81;100629.77;105258;1289;71296;-83
2023/07/23 00:02:56;;;;;;;;;;;;;;;14.47;48.92;100624.77;105242;1291;61154;-83
2023/07/23 00:05:43;;;;;;;;;;;;;;;14.44;49.12;100625.05;105173;1290;61188;-83
2023/07/23 00:08:29;;;;;;;;;;;;;;;14.45;49.12;100619.61;105149;1291;74371;-83
2023/07/23 00:11:15;;;;;;;;;;;;;;;14.46;49.21;100623.06;105113;1289;68355;-83
2023/07/23 00:14:02;;;;;;;;;;;;;;;14.45;49.29;100624.64;105167;1294;72713;-83
2023/07/23 00:16:49;;;;;;;;;;;;;;;14.47;49.27;100617.80;105169;1294;61035;-83
2023/07/23 00:19:35;;;;;;;;;;;;;;;14.48;49.35;100616.05;105226;1288;59827;-84
2023/07/23 00:22:31;;;;;;;;;;;;;;;14.42;49.39;100611.90;105200;1292;74161;-84
2023/07/23 00:25:17;;;;;;;;;;;;;;;14.42;49.51;100611.55;105181;1289;67179;-83
2023/07/23 00:28:03;;;;;;;;;;;;;;;14.43;49.47;100608.08;105138;1290;72569;-84
2023/07/23 00:30:50;;;;;;;;;;;;;;;14.40;49.51;100608.29;105199;1290;61145;-84
2023/07/23 00:33:36;;;;;;;;;;;;;;;14.39;49.57;100606.41;105176;1289;61226;-83
2023/07/23 00:36:22;;;;;;;;;;;;;;;14.38;49.64;100606.80;105214;1289;74114;-83
2023/07/23 00:39:09;;;;;;;;;;;;;;;14.37;49.77;100608.92;105216;1290;66454;-84
2023/07/23 00:41:56;;;;;;;;;;;;;;;14.29;49.74;100603.28;105120;1290;71875;-84
2023/07/23 00:44:43;;;;;;;;;;;;;;;14.23;49.96;100602.41;105200;1290;61274;-84
2023/07/23 00:47:30;;;;;;;;;;;;;;;14.25;50.01;100600.27;105166;1291;61130;-84
2023/07/23 00:50:16;;;;;;;;;;;;;;;14.27;50.04;100597.80;105167;1291;73148;-83
2023/07/23 00:53:03;;;;;;;;;;;;;;;14.30;50.15;100596.66;105204;1293;67230;-84
2023/07/23 00:55:49;;;;;;;;;;;;;;;14.33;50.15;100594.64;104978;1290;202463;-83
2023/07/23 00:58:35;;;;;;;;;;;;;;;14.34;50.31;100593.60;105240;1295;61075;-83
2023/07/23 01:01:22;;;;;;;;;;;;;;;14.37;50.30;100584.45;105147;1290;59925;-83
2023/07/23 01:04:08;;;;;;;;;;;;;;;14.41;50.36;100581.04;105205;1290;73182;-83
2023/07/23 01:06:55;;;;;;;;;;;;;;;14.46;50.40;100575.55;105146;1290;67166;-83
2023/07/23 01:09:41;;;;;;;;;;;;;;;14.49;50.54;100569.37;105214;1290;71245;-83
2023/07/23 01:12:28;;;;;;;;;;;;;;;14.50;50.62;100562.38;105273;1289;59312;-83
2023/07/23 01:15:15;;;;;;;;;;;;;;;14.50;50.70;100562.91;105230;1289;62878;-83
2023/07/23 01:18:04;;;;;;;;;;;;;;;14.50;50.73;100558.40;105201;1291;75109;-83
2023/07/23 01:20:50;;;;;;;;;;;;;;;14.51;50.72;100556.27;105215;1289;67197;-83
2023/07/23 01:23:36;;;;;;;;;;;;;;;14.51;50.80;100550.39;105147;1288;74017;-83
2023/07/23 01:26:22;;;;;;;;;;;;;;;14.49;50.83;100549.59;105242;1288;59289;-84
2023/07/23 01:29:10;;;;;;;;;;;;;;;14.46;50.88;100549.33;105159;1291;61180;-84
2023/07/23 01:31:56;;;;;;;;;;;;;;;14.42;50.91;100546.00;105230;1289;74556;-83
2023/07/23 01:34:43;;;;;;;;;;;;;;;14.35;51.05;100543.27;105213;1289;67275;-84
2023/07/23 01:37:30;;;;;;;;;;;;;;;14.34;51.09;100539.99;105247;1291;71102;-84
2023/07/23 01:40:16;;;;;;;;;;;;;;;14.33;51.05;100537.60;105248;1290;60937;-83
2023/07/23 01:43:02;;;;;;;;;;;;;;;14.32;51.13;100536.40;105221;1291;61147;-83
2023/07/23 01:45:48;;;;;;;;;;;;;;;14.32;51.19;100534.34;105340;1289;73521;-83
2023/07/23 01:48:34;;;;;;;;;;;;;;;14.31;51.25;100532.12;105302;1294;67433;-83
2023/07/23 01:51:20;;;;;;;;;;;;;;;14.29;51.28;100529.05;105290;1292;72366;-84
2023/07/23 01:54:07;;;;;;;;;;;;;;;14.25;51.36;100524.14;105247;1293;60421;-83
2023/07/23 01:56:55;;;;;;;;;;;;;;;14.24;51.41;100515.67;105148;1290;63321;-83
2023/07/23 01:59:41;;;;;;;;;;;;;;;14.23;51.49;100513.83;105101;1291;73172;-83
2023/07/23 02:02:27;;;;;;;;;;;;;;;14.21;51.51;100511.96;105090;1291;67349;-84
2023/07/23 02:05:15;;;;;;;;;;;;;;;14.21;51.61;100510.20;105013;1290;72049;-83
2023/07/23 02:08:01;;;;;;;;;;;;;;;14.22;51.64;100507.61;105034;1290;62257;-83
2023/07/23 02:10:47;;;;;;;;;;;;;;;14.24;51.67;100504.94;105076;1290;61200;-84
2023/07/23 02:13:34;;;;;;;;;;;;;;;14.23;51.71;100502.38;105031;1290;77459;-83
2023/07/23 02:16:21;;;;;;;;;;;;;;;14.22;51.80;100497.02;104921;1291;68038;-84
2023/07/23 02:19:08;;;;;;;;;;;;;;;14.22;51.79;100497.03;105080;1290;71391;-84
2023/07/23 02:21:54;;;;;;;;;;;;;;;14.23;51.87;100496.64;105034;1291;61218;-83
2023/07/23 02:24:40;;;;;;;;;;;;;;;14.27;51.88;100494.11;105110;1289;61211;-83
2023/07/23 02:27:26;;;;;;;;;;;;;;;14.28;51.95;100491.80;105095;1290;74628;-83
2023/07/23 02:30:13;;;;;;;;;;;;;;;14.31;51.92;100488.59;105134;1291;67943;-84
2023/07/23 02:32:59;;;;;;;;;;;;;;;14.36;52.02;100485.31;105097;1291;72394;-84
2023/07/23 02:35:46;;;;;;;;;;;;;;;14.40;52.03;100482.38;105063;1290;59198;-83
2023/07/23 02:38:33;;;;;;;;;;;;;;;14.43;52.07;100482.65;105111;1291;61066;-84
2023/07/23 02:41:19;;;;;;;;;;;;;;;14.47;52.13;100481.33;105097;1290;73282;-83
2023/07/23 02:44:05;;;;;;;;;;;;;;;14.49;52.15;100482.82;104996;1293;67301;-84
2023/07/23 02:46:53;;;;;;;;;;;;;;;14.52;52.19;100477.31;105111;1291;72506;-83
2023/07/23 02:49:39;;;;;;;;;;;;;;;14.56;52.23;100477.68;105094;1290;61303;-83
2023/07/23 02:52:25;;;;;;;;;;;;;;;14.59;52.23;100478.95;105075;1291;61474;-84
2023/07/23 02:55:12;;;;;;;;;;;;;;;14.63;52.34;100476.22;105072;1289;74419;-83
2023/07/23 02:58:00;;;;;;;;;;;;;;;14.65;52.39;100476.31;105146;1290;67433;-83
2023/07/23 03:00:46;;;;;;;;;;;;;;;14.67;52.44;100476.95;105082;1290;71319;-83
2023/07/23 03:03:33;;;;;;;;;;;;;;;14.69;52.46;100472.20;105062;1290;61173;-83
2023/07/23 03:06:20;;;;;;;;;;;;;;;14.72;52.51;100469.86;105081;1290;61188;-83
2023/07/23 03:09:06;;;;;;;;;;;;;;;14.75;52.51;100468.51;105053;1289;73889;-83
2023/07/23 03:11:53;;;;;;;;;;;;;;;14.78;52.57;100463.73;105094;1294;67194;-84
2023/07/23 03:14:39;;;;;;;;;;;;;;;14.79;52.67;100463.16;105108;1288;73326;-83
2023/07/23 03:17:26;;;;;;;;;;;;;;;14.80;52.64;100459.84;105042;1291;61801;-83
2023/07/23 03:20:13;;;;;;;;;;;;;;;14.80;52.73;100456.52;105032;1291;59371;-83
2023/07/23 03:22:59;;;;;;;;;;;;;;;14.82;52.79;100455.58;105050;1289;75966;-83
2023/07/23 03:25:45;;;;;;;;;;;;;;;14.84;52.77;100451.85;105059;1290;67279;-84
2023/07/23 03:28:31;;;;;;;;;;;;;;;14.86;52.75;100446.94;105102;1290;71237;-83
2023/07/23 03:31:17;;;;;;;;;;;;;;;14.90;52.76;100446.62;105112;1290;61048;-83
2023/07/23 03:34:03;;;;;;;;;;;;;;;14.93;52.83;100445.83;105155;1290;61160;-83
2023/07/23 03:36:49;;;;;;;;;;;;;;;14.97;52.87;100442.39;105166;1290;73561;-83
2023/07/23 03:39:36;;;;;;;;;;;;;;;15.00;52.92;100435.52;105066;1290;68303;-83
2023/07/23 03:42:25;;;;;;;;;;;;;;;15.02;52.90;100427.80;105139;1290;72230;-83
2023/07/23 03:45:12;;;;;;;;;;;;;;;15.06;52.98;100420.86;105079;1290;59316;-83
2023/07/23 03:47:58;;;;;;;;;;;;;;;15.10;53.05;100416.84;105130;1294;61036;-84
2023/07/23 03:50:44;;;;;;;;;;;;;;;15.12;53.08;100410.52;105154;1291;76322;-84
2023/07/23 03:53:30;;;;;;;;;;;;;;;15.16;53.14;100408.47;105199;1289;67436;-84
2023/07/23 03:56:16;;;;;;;;;;;;;;;15.19;53.06;100409.21;105144;1291;71292;-83
2023/07/23 03:59:02;;;;;;;;;;;;;;;15.24;53.07;100408.34;105097;1291;61280;-83
2023/07/23 04:01:48;;;;;;;;;;;;;;;15.27;53.10;100410.48;104979;1291;61173;-83
2023/07/23 04:04:35;;;;;;;;;;;;;;;15.30;53.09;100406.18;105106;1290;73346;-83
2023/07/23 04:07:21;;;;;;;;;;;;;;;15.35;53.17;100402.88;105029;1291;70007;-83
2023/07/23 04:10:08;;;;;;;;;;;;;;;15.42;53.08;100406.41;105084;1291;72437;-83
2023/07/23 04:12:54;;;;;;;;;;;;;;;15.50;53.13;100407.14;105052;1289;60563;-83
2023/07/23 04:15:40;;;;;;;;;;;;;;;15.56;53.12;100409.70;105103;1290;63804;-83
2023/07/23 04:18:43;;;;;;;;;;;;;;;15.64;53.20;100404.52;105051;1291;73644;-83
2023/07/23 04:21:30;;;;;;;;;;;;;;;15.72;53.29;100401.40;105098;1291;67982;-83
2023/07/23 04:24:17;;;;;;;;;;;;;;;15.78;53.24;100402.02;105127;1289;71464;-83
2023/07/23 04:27:03;;;;;;;;;;;;;;;15.83;53.19;100398.53;105140;1291;61265;-83
2023/07/23 04:29:50;;;;;;;;;;;;;;;15.87;53.29;100393.46;105080;1291;61153;-83
2023/07/23 04:32:36;;;;;;;;;;;;;;;15.94;53.33;100392.01;105079;1289;74617;-83
2023/07/23 04:35:23;;;;;;;;;;;;;;;15.99;53.45;100392.81;105190;1291;68580;-83
2023/07/23 04:38:09;;;;;;;;;;;;;;;16.05;53.62;100389.80;105081;1290;73973;-83
2023/07/23 04:40:56;;;;;;;;;;;;;;;16.10;53.51;100383.65;105155;1290;59589;-83
2023/07/23 04:43:43;;;;;;;;;;;;;;;16.16;53.49;100387.71;105097;1291;61272;-83
2023/07/23 04:46:29;;;;;;;;;;;;;;;16.19;53.45;100382.19;105127;1290;73734;-83
2023/07/23 04:49:15;;;;;;;;;;;;;;;16.25;53.45;100384.05;105063;1291;67137;-83
2023/07/23 04:52:02;;;;;;;;;;;;;;;16.30;53.46;100386.41;105057;1293;75983;-83
2023/07/23 04:54:48;;;;;;;;;;;;;;;16.36;53.43;100378.85;105046;1290;61287;-83
2023/07/23 04:57:34;;;;;;;;;;;;;;;16.41;53.42;100377.26;105084;1290;59813;-83
2023/07/23 05:00:21;;;;;;;;;;;;;;;16.46;53.34;100375.64;105132;1291;73825;-83
2023/07/23 05:03:07;;;;;;;;;;;;;;;16.53;53.33;100375.34;105224;1290;67432;-83
2023/07/23 05:05:54;;;;;;;;;;;;;;;16.60;53.26;100375.90;105249;1294;72089;-83
2023/07/23 05:08:41;;;;;;;;;;;;;;;16.67;53.24;100373.70;105227;1291;61125;-83
2023/07/23 05:11:28;;;;;;;;;;;;;;;16.71;53.22;100366.85;105179;1290;61166;-83
2023/07/23 05:14:15;;;;;;;;;;;;;;;16.77;53.15;100366.23;105158;1289;73210;-83
2023/07/23 05:17:01;;;;;;;;;;;;;;;16.84;53.13;100366.63;105244;1291;67396;-84
2023/07/23 05:19:49;;;;;;;;;;;;;;;16.91;53.08;100368.24;105228;1294;71393;-83
2023/07/23 05:22:39;;;;;;;;;;;;;;;16.98;53.10;100366.83;105223;1291;59322;-83
2023/07/23 05:25:25;;;;;;;;;;;;;;;17.07;52.96;100367.30;105201;1291;61104;-83
2023/07/23 05:28:12;;;;;;;;;;;;;;;17.14;52.85;100366.27;105175;1290;73192;-84
2023/07/23 05:30:58;;;;;;;;;;;;;;;17.21;52.78;100365.02;105248;1291;66933;-84
2023/07/23 05:33:44;;;;;;;;;;;;;;;17.28;52.77;100361.39;105185;1290;74391;-83
2023/07/23 05:36:30;;;;;;;;;;;;;;;17.36;52.68;100364.86;105221;1291;61034;-83
2023/07/23 05:39:16;;;;;;;;;;;;;;;17.42;52.63;100376.41;105210;1297;61134;-84
2023/07/23 05:42:03;;;;;;;;;;;;;;;17.45;52.64;100390.91;105304;1293;73298;-84
2023/07/23 05:44:50;;;;;;;;;;;;;;;17.46;52.64;100412.11;105165;1290;67884;-84
2023/07/23 05:47:36;;;;;;;;;;;;;;;17.46;52.71;100427.44;105227;1291;73164;-84
2023/07/23 05:50:22;;;;;;;;;;;;;;;17.43;52.53;100442.25;105192;1290;61073;-84
2023/07/23 05:53:08;;;;;;;;;;;;;;;17.41;52.61;100451.75;105193;1291;61143;-84
2023/07/23 05:55:54;;;;;;;;;;;;;;;17.41;52.60;100449.64;105186;1289;73082;-84
2023/07/23 05:58:40;;;;;;;;;;;;;;;17.43;52.55;100453.20;105202;1289;70032;-84
2023/07/23 06:01:27;;;;;;;;;;;;;;;17.47;52.57;100452.65;105048;1291;71655;-84
2023/07/23 06:04:13;;;;;;;;;;;;;;;17.52;52.57;100454.89;105232;1290;61380;-84
2023/07/23 06:06:59;;;;;;;;;;;;;;;17.53;52.66;100448.70;105155;1289;61104;-84
2023/07/23 06:09:45;;;;;;;;;;;;;;;17.55;52.71;100444.64;105148;1292;75020;-84
2023/07/23 06:12:31;;;;;;;;;;;;;;;17.57;52.90;100445.92;105154;1294;69092;-84
2023/07/23 06:15:17;;;;;;;;;;;;;;;17.60;53.03;100446.32;105247;1291;71291;-84
2023/07/23 06:18:04;;;;;;;;;;;;;;;17.63;53.05;100444.62;105255;1289;61243;-84
2023/07/23 06:20:50;;;;;;;;;;;;;;;17.69;53.18;100446.23;105225;1291;61180;-84
2023/07/23 06:23:36;;;;;;;;;;;;;;;17.75;53.46;100441.20;105256;1291;75345;-84
2023/07/23 06:26:22;;;;;;;;;;;;;;;17.80;53.23;100440.61;105302;1289;67516;-84
2023/07/23 06:29:09;;;;;;;;;;;;;;;17.84;53.43;100436.95;105237;1290;71131;-84
2023/07/23 06:31:55;;;;;;;;;;;;;;;17.87;53.51;100433.13;105237;1291;61861;-84
2023/07/23 06:34:41;;;;;;;;;;;;;;;17.91;53.72;100434.88;105275;1291;62303;-84
2023/07/23 06:37:27;;;;;;;;;;;;;;;17.94;53.80;100433.16;101332;1289;5062983;-84
2023/07/23 06:40:14;;;;;;;;;;;;;;;17.98;53.97;100428.08;105218;1289;69250;-84
2023/07/23 06:43:00;;;;;;;;;;;;;;;18.07;54.02;100418.38;105193;1292;75659;-84
2023/07/23 06:45:47;;;;;;;;;;;;;;;18.21;54.05;100408.62;105164;1291;60220;-84
2023/07/23 06:48:33;;;;;;;;;;;;;;;18.33;54.29;100399.57;105210;1291;59894;-84
2023/07/23 06:51:19;;;;;;;;;;;;;;;18.45;54.24;100397.76;105249;1291;75331;-84
2023/07/23 06:54:05;;;;;;;;;;;;;;;18.58;54.21;100396.03;105236;1288;68598;-84
2023/07/23 06:56:54;;;;;;;;;;;;;;;18.82;54.34;100394.23;105141;1291;71340;-84
2023/07/23 06:59:40;;;;;;;;;;;;;;;19.21;54.30;100396.63;105232;1291;62013;-84
2023/07/23 07:02:26;;;;;;;;;;;;;;;19.55;53.93;100393.33;105233;1288;61973;-85
2023/07/23 07:05:12;;;;;;;;;;;;;;;19.80;53.53;100392.56;104573;1291;766854;-84
2023/07/23 07:07:58;;;;;;;;;;;;;;;20.05;53.75;100395.29;105091;1289;67856;-84
2023/07/23 07:10:46;;;;;;;;;;;;;;;20.25;53.58;100391.28;105227;1294;71101;-84
2023/07/23 07:13:32;;;;;;;;;;;;;;;20.43;53.57;100388.99;105298;1289;59474;-84
2023/07/23 07:16:20;;;;;;;;;;;;;;;20.66;53.28;100385.65;105251;1291;60319;-84
2023/07/23 07:19:06;;;;;;;;;;;;;;;21.15;53.13;100381.17;105185;1291;76800;-84
2023/07/23 07:21:54;;;;;;;;;;;;;;;21.56;53.13;100378.84;105241;1291;70091;-84
2023/07/23 07:24:40;;;;;;;;;;;;;;;22.22;53.07;100381.26;105187;1294;73133;-84
2023/07/23 07:27:26;;;;;;;;;;;;;;;23.00;52.53;100377.93;105236;1289;60287;-84
2023/07/23 07:30:13;;;;;;;;;;;;;;;23.88;52.44;100379.55;105197;1294;62034;-84
2023/07/23 07:32:59;;;;;;;;;;;;;;;24.70;51.86;100380.60;105162;1289;74190;-85
2023/07/23 07:35:46;;;;;;;;;;;;;;;25.49;51.47;100378.10;105137;1289;68371;-85
2023/07/23 07:38:32;;;;;;;;;;;;;;;25.97;51.30;100380.64;105153;1294;70787;-84
2023/07/23 07:41:18;;;;;;;;;;;;;;;26.59;51.19;100379.38;105135;1290;62051;-85
2023/07/23 07:44:05;;;;;;;;;;;;;;;27.51;50.62;100378.64;105180;1289;61864;-84
2023/07/23 07:46:52;;;;;;;;;;;;;;;27.98;50.44;100381.38;105121;1289;73688;-84
2023/07/23 07:49:39;;;;;;;;;;;;;;;28.38;50.27;100384.92;105119;1289;68525;-85
2023/07/23 07:52:25;;;;;;;;;;;;;;;29.54;49.82;100381.70;105001;1295;71374;-85
2023/07/23 07:55:11;;;;;;;;;;;;;;;31.28;48.88;100377.79;105091;1290;62075;-84
2023/07/23 07:57:58;;;;;;;;;;;;;;;31.82;48.18;100370.41;105150;1290;59657;-85
2023/07/23 08:00:44;;;;;;;;;;;;;;;32.44;47.65;100370.81;105155;1294;74081;-85
2023/07/23 08:03:32;;;;;;;;;;;;;;;32.60;47.18;100369.65;105068;1291;67300;-85
2023/07/23 08:06:39;;;;;;;;;;;;;;;33.92;46.79;100367.01;105499;1290;71433;-92
2023/07/23 08:09:45;;;;;;;;;;;;;;;35.85;46.15;100356.14;106167;1290;59858;-85
2023/07/23 08:12:33;;;;;;;;;;;;;;;36.91;45.57;100355.75;105666;1289;59755;-86
2023/07/23 08:15:20;;;;;;;;;;;;;;;37.78;44.88;100356.44;105188;1289;74274;-85
2023/07/23 08:18:07;;;;;;;;;;;;;;;38.77;44.72;100358.15;105189;1292;67549;-85
2023/07/23 08:20:57;;;;;;;;;;;;;;;39.07;43.97;100353.27;105214;1289;72300;-85
2023/07/23 08:23:43;;;;;;;;;;;;;;;39.14;43.88;100355.02;105210;1289;60105;-85
2023/07/23 08:26:30;;;;;;;;;;;;;;;39.54;43.21;100354.91;105260;1290;62720;-85
2023/07/23 08:29:17;;;;;;;;;;;;;;;40.16;42.49;100356.48;105181;1292;75029;-85
2023/07/23 08:32:04;;;;;;;;;;;;;;;40.15;42.10;100355.63;105177;1291;68194;-86
2023/07/23 08:34:50;;;;;;;;;;;;;;;40.94;41.80;100353.94;105182;1291;72159;-85
2023/07/23 08:37:36;;;;;;;;;;;;;;;41.76;40.83;100358.30;105238;1292;62076;-84
2023/07/23 08:40:24;;;;;;;;;;;;;;;41.68;39.63;100360.69;105132;1290;62108;-85
2023/07/23 08:43:29;;;;;;;;;;;;;;;41.60;39.36;100360.57;105228;1291;76185;-85
2023/07/23 08:46:23;;;;;;;;;;;;;;;40.88;38.84;100356.27;105142;1294;67160;-85
2023/07/23 08:49:10;;;;;;;;;;;;;;;39.12;38.13;100349.87;105213;1291;71179;-84
2023/07/23 08:51:57;;;;;;;;;;;;;;;37.86;38.00;100355.61;105214;1290;61983;-84
2023/07/23 08:54:43;;;;;;;;;;;;;;;37.84;37.78;100348.88;105263;1291;62515;-85
2023/07/23 08:57:30;;;;;;;;;;;;;;;38.77;37.10;100343.09;105207;1289;73290;-85
2023/07/23 09:00:17;;;;;;;;;;;;;;;39.67;36.06;100343.77;105172;1294;68538;-86
2023/07/23 09:03:04;;;;;;;;;;;;;;;38.75;35.91;100344.48;105385;1289;71248;-86
2023/07/23 09:05:50;;;;;;;;;;;;;;;37.11;36.16;100339.15;105298;1291;62002;-85
2023/07/23 09:08:36;;;;;;;;;;;;;;;35.60;36.06;100341.52;105246;1289;61976;-84
2023/07/23 09:11:23;;;;;;;;;;;;;;;34.35;35.76;100346.65;105141;1289;74742;-85
2023/07/23 09:14:10;;;;;;;;;;;;;;;33.20;35.38;100345.11;105177;1294;68868;-85
2023/07/23 09:16:57;;;;;;;;;;;;;;;32.10;35.22;100341.58;105279;1294;72583;-85
2023/07/23 09:19:44;;;;;;;;;;;;;;;31.22;34.99;100337.86;105095;1289;61998;-85
2023/07/23 09:22:32;;;;;;;;;;;;;;;30.49;34.88;100336.58;105270;1290;61309;-85
2023/07/23 09:25:18;;;;;;;;;;;;;;;30.01;34.75;100334.55;105223;1289;75032;-84
2023/07/23 09:28:05;;;;;;;;;;;;;;;29.55;34.43;100340.45;105222;1290;69389;-84
2023/07/23 09:30:56;;;;;;;;;;;;;;;29.17;34.54;100334.84;105237;1290;72225;-85
2023/07/23 09:33:42;;;;;;;;;;;;;;;28.84;34.33;100333.71;105300;1293;61797;-87
2023/07/23 09:36:29;;;;;;;;;;;;;;;28.45;34.28;100334.98;105188;1290;62027;-87
2023/07/23 09:39:15;;;;;;;;;;;;;;;28.11;34.23;100333.52;105202;1289;74169;-85
2023/07/23 09:42:03;;;;;;;;;;;;;;;27.88;34.28;100327.54;105257;1290;67093;-85
2023/07/23 09:44:50;;;;;;;;;;;;;;;27.69;34.34;100327.05;105081;1294;72957;-85
2023/07/23 09:47:36;;;;;;;;;;;;;;;27.40;34.30;100325.30;105201;1294;62021;-85
2023/07/23 09:50:23;;;;;;;;;;;;;;;27.11;34.56;100328.60;105239;1295;61949;-85
2023/07/23 09:53:15;;;;;;;;;;;;;;;26.83;34.40;100328.11;105160;1295;73539;-86
2023/07/23 09:56:08;;;;;;;;;;;;;;;26.56;34.46;100329.84;105327;1289;68219;-86
2023/07/23 09:59:02;;;;;;;;;;;;;;;26.35;34.70;100331.78;105367;1295;74520;-85
2023/07/23 10:01:48;;;;;;;;;;;;;;;26.23;34.59;100333.89;105245;1291;62013;-85
2023/07/23 10:04:35;;;;;;;;;;;;;;;26.10;34.75;100329.02;105295;1295;61893;-85
2023/07/23 10:07:22;;;;;;;;;;;;;;;25.99;34.76;100334.55;105283;1298;74098;-85
2023/07/23 10:10:08;;;;;;;;;;;;;;;25.86;34.77;100329.65;105158;1290;67248;-85
2023/07/23 10:12:55;;;;;;;;;;;;;;;25.72;34.83;100329.25;105274;1293;71218;-85
2023/07/23 10:15:41;;;;;;;;;;;;;;;25.61;35.07;100334.70;105152;1292;60866;-85
2023/07/23 10:18:28;;;;;;;;;;;;;;;25.60;35.04;100337.11;105213;1289;62893;-85
2023/07/23 10:21:15;;;;;;;;;;;;;;;25.58;35.12;100324.39;105201;1292;73992;-85
2023/07/23 10:24:03;;;;;;;;;;;;;;;25.53;35.23;100329.73;105108;1289;67285;-85
2023/07/23 10:26:53;;;;;;;;;;;;;;;25.51;35.25;100329.41;105075;1289;71082;-85
2023/07/23 10:29:41;;;;;;;;;;;;;;;25.49;35.47;100330.76;105252;1289;62051;-85
2023/07/23 10:32:28;;;;;;;;;;;;;;;25.52;35.41;100327.35;105244;1289;61936;-85
2023/07/23 10:35:34;;;;;;;;;;;;;;;25.56;35.44;100326.55;105176;1289;74228;-85
2023/07/23 10:38:23;;;;;;;;;;;;;;;25.65;35.61;100326.27;105239;1289;68836;-85
2023/07/23 10:41:09;;;;;;;;;;;;;;;25.77;35.54;100329.73;105261;1293;72587;-87
2023/07/23 10:43:56;;;;;;;;;;;;;;;25.84;35.58;100324.90;105223;1289;60145;-87
2023/07/23 10:46:44;;;;;;;;;;;;;;;25.83;35.65;100321.94;105114;1295;61815;-85
2023/07/23 10:49:30;;;;;;;;;;;;;;;25.88;35.79;100313.76;105205;1290;75405;-85
2023/07/23 10:52:17;;;;;;;;;;;;;;;25.97;35.77;100315.09;105144;1289;67480;-85
2023/07/23 10:55:04;;;;;;;;;;;;;;;26.00;35.83;100313.30;105170;1289;72110;-85
2023/07/23 10:57:53;;;;;;;;;;;;;;;25.99;35.77;100314.92;105033;1292;60623;-85
2023/07/23 11:00:43;;;;;;;;;;;;;;;26.02;35.83;100313.41;105140;1291;61855;-87
2023/07/23 11:03:30;;;;;;;;;;;;;;;26.03;35.83;100314.08;105149;1293;75365;-88
2023/07/23 11:06:30;;;;;;;;;;;;;;;25.97;35.95;100316.39;105185;1289;67627;-87
2023/07/23 11:09:20;;;;;;;;;;;;;;;25.99;35.95;100317.77;105166;1290;71361;-87
2023/07/23 11:12:09;;;;;;;;;;;;;;;26.04;36.03;100313.26;105120;1292;61236;-87
2023/07/23 11:14:55;;;;;;;;;;;;;;;26.19;35.98;100305.80;105248;1294;61969;-87
2023/07/23 11:17:41;;;;;;;;;;;;;;;26.29;36.10;100307.42;105303;1289;73993;-85
2023/07/23 11:20:28;;;;;;;;;;;;;;;26.35;36.13;100310.63;105209;1293;67188;-85
2023/07/23 11:23:15;;;;;;;;;;;;;;;26.36;36.09;100309.77;105253;1290;71187;-85
2023/07/23 11:26:02;;;;;;;;;;;;;;;26.39;36.17;100313.45;105190;1289;63251;-85
2023/07/23 11:28:48;;;;;;;;;;;;;;;26.31;36.16;100305.27;105137;1290;60008;-85
2023/07/23 11:31:34;;;;;;;;;;;;;;;26.31;36.23;100306.35;105249;1292;74685;-85
2023/07/23 11:34:25;;;;;;;;;;;;;;;26.35;36.20;100299.14;105151;1289;67347;-85
2023/07/23 11:37:14;;;;;;;;;;;;;;;26.43;36.30;100295.13;105181;1290;73876;-85
2023/07/23 11:40:01;;;;;;;;;;;;;;;26.48;36.23;100296.81;105088;1288;62907;-84
2023/07/23 11:42:47;;;;;;;;;;;;;;;26.54;36.32;100290.23;105143;1294;62036;-85
2023/07/23 11:45:46;;;;;;;;;;;;;;;26.59;36.37;100288.66;105088;1290;74220;-84
2023/07/23 11:48:32;;;;;;;;;;;;;;;26.61;36.31;100287.05;105041;1289;68030;-85
2023/07/23 11:51:18;;;;;;;;;;;;;;;26.57;36.28;100289.00;105125;1291;72714;-85
2023/07/23 11:54:07;;;;;;;;;;;;;;;26.53;36.33;100289.55;105082;1291;61868;-84
2023/07/23 11:56:54;;;;;;;;;;;;;;;26.46;36.33;100286.03;105261;1290;61879;-84
2023/07/23 11:59:42;;;;;;;;;;;;;;;26.30;36.31;100290.71;105136;1290;75250;-85
2023/07/23 12:02:28;;;;;;;;;;;;;;;26.22;36.46;100295.47;105159;1290;67217;-85
2023/07/23 12:05:15;;;;;;;;;;;;;;;26.14;36.41;100295.84;105153;1295;72026;-85
2023/07/23 12:08:02;;;;;;;;;;;;;;;26.04;36.44;100290.63;105212;1290;62313;-85
2023/07/23 12:10:48;;;;;;;;;;;;;;;25.95;36.49;100290.23;105224;1291;62011;-85
2023/07/23 12:13:34;;;;;;;;;;;;;;;25.93;36.57;100285.32;105186;1289;75143;-85
2023/07/23 12:16:43;;;;;;;;;;;;;;;25.94;36.61;100279.34;105173;1289;67339;-84
2023/07/23 12:19:32;;;;;;;;;;;;;;;26.01;36.71;100275.54;104862;1294;71305;-84
2023/07/23 12:22:18;;;;;;;;;;;;;;;26.13;36.64;100276.28;104829;1294;60247;-85
2023/07/23 12:25:04;;;;;;;;;;;;;;;26.20;36.68;100272.27;104846;1295;62055;-85
2023/07/23 12:27:50;;;;;;;;;;;;;;;26.25;36.68;100263.20;104860;1297;74253;-84
2023/07/23 12:30:37;;;;;;;;;;;;;;;26.29;36.66;100261.13;104879;1294;68896;-85
2023/07/23 12:33:23;;;;;;;;;;;;;;;26.35;36.66;100262.13;104851;1294;71587;-85
2023/07/23 12:36:10;;;;;;;;;;;;;;;26.33;36.55;100256.02;104815;1294;62837;-85
2023/07/23 12:38:56;;;;;;;;;;;;;;;26.24;36.58;100254.83;104842;1294;62142;-85
2023/07/23 12:41:42;;;;;;;;;;;;;;;26.22;36.74;100250.77;104766;1294;74216;-85
2023/07/23 12:44:29;;;;;;;;;;;;;;;26.27;36.67;100252.10;104819;1299;68576;-85
2023/07/23 12:47:16;;;;;;;;;;;;;;;26.32;36.72;100250.39;104839;1294;71350;-85
2023/07/23 12:50:03;;;;;;;;;;;;;;;26.40;36.68;100240.42;104897;1295;61939;-85
2023/07/23 12:52:49;;;;;;;;;;;;;;;26.49;36.69;100236.43;104897;1294;61885;-85
2023/07/23 12:55:35;;;;;;;;;;;;;;;26.53;36.57;100233.69;104911;1294;75342;-85
2023/07/23 12:58:22;;;;;;;;;;;;;;;26.51;36.54;100228.02;105183;1289;68685;-84
2023/07/23 13:01:08;;;;;;;;;;;;;;;26.52;36.61;100221.63;105199;1290;74023;-85
2023/07/23 13:03:54;;;;;;;;;;;;;;;26.51;36.62;100229.29;105276;1290;60639;-85
2023/07/23 13:06:40;;;;;;;;;;;;;;;26.53;36.55;100230.50;105197;1291;62088;-85
2023/07/23 13:09:27;;;;;;;;;;;;;;;26.54;36.54;100229.05;105291;1289;73955;-85
2023/07/23 13:12:13;;;;;;;;;;;;;;;26.53;36.56;100227.71;105191;1289;67257;-85
2023/07/23 13:15:00;;;;;;;;;;;;;;;26.54;36.56;100219.67;105196;1289;74429;-85
2023/07/23 13:17:47;;;;;;;;;;;;;;;26.55;36.50;100215.79;105104;1291;61983;-85
2023/07/23 13:20:34;;;;;;;;;;;;;;;26.56;36.49;100208.32;105454;1290;62031;-85
2023/07/23 13:23:20;;;;;;;;;;;;;;;26.50;36.48;100208.85;105049;1290;74593;-85
2023/07/23 13:26:06;;;;;;;;;;;;;;;26.47;36.46;100209.17;105102;1290;68441;-85
2023/07/23 13:28:52;;;;;;;;;;;;;;;26.50;36.53;100208.36;105199;1293;74440;-85
2023/07/23 13:31:39;;;;;;;;;;;;;;;26.54;36.40;100209.98;105161;1290;60296;-85
2023/07/23 13:34:25;;;;;;;;;;;;;;;26.55;36.29;100203.88;105034;1289;62031;-84
2023/07/23 13:37:11;;;;;;;;;;;;;;;26.51;36.34;100201.52;105207;1291;74182;-85
2023/07/23 13:39:57;;;;;;;;;;;;;;;26.50;36.33;100194.40;105213;1289;67199;-85
2023/07/23 13:42:43;;;;;;;;;;;;;;;26.44;36.35;100192.64;105108;1290;73734;-85
2023/07/23 13:45:29;;;;;;;;;;;;;;;26.38;36.25;100182.58;105030;1289;202369;-85
2023/07/23 13:48:16;;;;;;;;;;;;;;;26.34;36.30;100180.41;105099;1289;61791;-84
2023/07/23 13:51:02;;;;;;;;;;;;;;;26.35;36.41;100176.98;105280;1291;74124;-85
2023/07/23 13:53:48;;;;;;;;;;;;;;;26.40;36.42;100175.71;105248;1289;68405;-85
2023/07/23 13:56:34;;;;;;;;;;;;;;;26.44;36.34;100174.86;105279;1288;71247;-85
2023/07/23 13:59:20;;;;;;;;;;;;;;;26.51;36.25;100168.13;105235;1290;60147;-85
2023/07/23 14:02:06;;;;;;;;;;;;;;;26.58;36.20;100170.88;105191;1289;60111;-85
2023/07/23 14:04:53;;;;;;;;;;;;;;;26.59;36.21;100155.20;105264;1288;76070;-85